sensor_id;sensor_type;location;lat;lon;timestamp;pressure;altitude;pressure_sealevel;temperature
43802;BMP280;29429;51.074;13.764;2023-08-30T00:01:24;99152.53;;;15.71
43802;BMP280;29429;51.074;13.764;2023-08-30T00:03:51;99157.59;;;15.68
43802;BMP280;29429;51.074;13.764;2023-08-30T00:06:18;99168.63;;;15.66
43802;BMP280;29429;51.074;13.764;2023-08-30T00:08:45;99174.22;;;15.65
43802;BMP280;29429;51.074;13.764;2023-08-30T00:11:13;99174.50;;;15.63
43802;BMP280;29429;51.074;13.764;2023-08-30T00:13:41;99177.19;;;15.63
43802;BMP280;29429;51.074;13.764;2023-08-30T00:16:09;99177.19;;;15.63
43802;BMP280;29429;51.074;13.764;2023-08-30T00:18:36;99177.44;;;15.62
43802;BMP280;29429;51.074;13.764;2023-08-30T00:21:03;99179.88;;;15.63
43802;BMP280;29429;51.074;13.764;2023-08-30T00:23:30;99176.41;;;15.68
43802;BMP280;29429;51.074;13.764;2023-08-30T00:25:57;99173.00;;;15.72
43802;BMP280;29429;51.074;13.764;2023-08-30T00:28:24;99184.53;;;15.73
43802;BMP280;29429;51.074;13.764;2023-08-30T00:30:55;99176.25;;;15.74
43802;BMP280;29429;51.074;13.764;2023-08-30T00:33:23;99187.00;;;15.74
43802;BMP280;29429;51.074;13.764;2023-08-30T00:35:58;99186.69;;;15.71
43802;BMP280;29429;51.074;13.764;2023-08-30T00:38:28;99185.25;;;15.63
43802;BMP280;29429;51.074;13.764;2023-08-30T00:40:56;99182.28;;;15.65
43802;BMP280;29429;51.074;13.764;2023-08-30T00:43:23;99179.88;;;15.63
43802;BMP280;29429;51.074;13.764;2023-08-30T00:45:50;99179.69;;;15.70
43802;BMP280;29429;51.074;13.764;2023-08-30T00:48:20;99186.19;;;15.74
43802;BMP280;29429;51.074;13.764;2023-08-30T00:50:48;99187.59;;;15.81
43802;BMP280;29429;51.074;13.764;2023-08-30T00:53:15;99201.09;;;15.87
43802;BMP280;29429;51.074;13.764;2023-08-30T00:55:44;99188.09;;;15.78
43802;BMP280;29429;51.074;13.764;2023-08-30T00:58:12;99195.13;;;15.79
43802;BMP280;29429;51.074;13.764;2023-08-30T01:00:39;99198.34;;;15.81
43802;BMP280;29429;51.074;13.764;2023-08-30T01:03:09;99188.69;;;15.80
43802;BMP280;29429;51.074;13.764;2023-08-30T01:05:37;99192.97;;;15.81
43802;BMP280;29429;51.074;13.764;2023-08-30T01:08:04;99192.16;;;15.81
43802;BMP280;29429;51.074;13.764;2023-08-30T01:13:45;99190.19;;;15.71
43802;BMP280;29429;51.074;13.764;2023-08-30T01:16:14;99177.84;;;15.75
43802;BMP280;29429;51.074;13.764;2023-08-30T01:18:44;99181.41;;;15.81
43802;BMP280;29429;51.074;13.764;2023-08-30T01:21:25;99179.53;;;15.81
43802;BMP280;29429;51.074;13.764;2023-08-30T01:23:59;99187.88;;;15.80
43802;BMP280;29429;51.074;13.764;2023-08-30T01:27:10;99185.13;;;15.75
43802;BMP280;29429;51.074;13.764;2023-08-30T01:29:40;99175.09;;;15.70
43802;BMP280;29429;51.074;13.764;2023-08-30T01:32:09;99178.13;;;15.74
43802;BMP280;29429;51.074;13.764;2023-08-30T01:34:39;99167.34;;;15.74
43802;BMP280;29429;51.074;13.764;2023-08-30T01:37:08;99163.84;;;15.73
43802;BMP280;29429;51.074;13.764;2023-08-30T01:39:40;99173.56;;;15.74
43802;BMP280;29429;51.074;13.764;2023-08-30T01:42:09;99175.09;;;15.70
43802;BMP280;29429;51.074;13.764;2023-08-30T01:44:38;99164.16;;;15.77
43802;BMP280;29429;51.074;13.764;2023-08-30T01:47:08;99166.69;;;15.89
43802;BMP280;29429;51.074;13.764;2023-08-30T01:49:37;99156.00;;;15.94
43802;BMP280;29429;51.074;13.764;2023-08-30T01:52:07;99146.34;;;15.98
43802;BMP280;29429;51.074;13.764;2023-08-30T01:54:37;99154.69;;;15.96
43802;BMP280;29429;51.074;13.764;2023-08-30T01:57:05;99149.53;;;15.95
43802;BMP280;29429;51.074;13.764;2023-08-30T01:59:32;99150.09;;;15.97
43802;BMP280;29429;51.074;13.764;2023-08-30T02:01:59;99152.28;;;16.00
43802;BMP280;29429;51.074;13.764;2023-08-30T02:04:27;99146.91;;;16.00
43802;BMP280;29429;51.074;13.764;2023-08-30T02:07:03;99143.66;;;15.98
43802;BMP280;29429;51.074;13.764;2023-08-30T02:12:57;99148.03;;;15.77
43802;BMP280;29429;51.074;13.764;2023-08-30T02:15:27;99142.38;;;15.78
43802;BMP280;29429;51.074;13.764;2023-08-30T02:17:57;99143.81;;;15.86
43802;BMP280;29429;51.074;13.764;2023-08-30T02:20:24;99147.88;;;15.89
43802;BMP280;29429;51.074;13.764;2023-08-30T02:22:51;99152.50;;;15.93
43802;BMP280;29429;51.074;13.764;2023-08-30T02:25:18;99163.25;;;15.93
43802;BMP280;29429;51.074;13.764;2023-08-30T02:27:46;99166.00;;;15.98
43802;BMP280;29429;51.074;13.764;2023-08-30T02:30:13;99163.53;;;15.97
43802;BMP280;29429;51.074;13.764;2023-08-30T02:32:40;99160.25;;;15.90
43802;BMP280;29429;51.074;13.764;2023-08-30T02:35:08;99162.91;;;15.84
43802;BMP280;29429;51.074;13.764;2023-08-30T02:37:37;99170.41;;;15.82
43802;BMP280;29429;51.074;13.764;2023-08-30T02:40:05;99171.22;;;15.83
43802;BMP280;29429;51.074;13.764;2023-08-30T02:42:32;99168.53;;;15.83
43802;BMP280;29429;51.074;13.764;2023-08-30T02:44:59;99166.91;;;15.82
43802;BMP280;29429;51.074;13.764;2023-08-30T02:47:26;99161.03;;;15.85
43802;BMP280;29429;51.074;13.764;2023-08-30T02:49:53;99154.50;;;15.81
43802;BMP280;29429;51.074;13.764;2023-08-30T02:52:20;99162.34;;;15.82
43802;BMP280;29429;51.074;13.764;2023-08-30T02:54:47;99162.09;;;15.84
43802;BMP280;29429;51.074;13.764;2023-08-30T02:57:14;99161.53;;;15.82
43802;BMP280;29429;51.074;13.764;2023-08-30T02:59:42;99163.94;;;15.83
43802;BMP280;29429;51.074;13.764;2023-08-30T03:02:09;99163.41;;;15.81
43802;BMP280;29429;51.074;13.764;2023-08-30T03:04:36;99161.53;;;15.82
43802;BMP280;29429;51.074;13.764;2023-08-30T03:07:05;99169.09;;;15.85
43802;BMP280;29429;51.074;13.764;2023-08-30T03:09:32;99174.72;;;15.83
43802;BMP280;29429;51.074;13.764;2023-08-30T03:11:59;99168.53;;;15.83
43802;BMP280;29429;51.074;13.764;2023-08-30T03:14:26;99169.97;;;15.91
43802;BMP280;29429;51.074;13.764;2023-08-30T03:16:54;99171.88;;;15.95
43802;BMP280;29429;51.074;13.764;2023-08-30T03:19:21;99167.31;;;15.96
43802;BMP280;29429;51.074;13.764;2023-08-30T03:21:48;99163.50;;;15.92
43802;BMP280;29429;51.074;13.764;2023-08-30T03:24:15;99178.09;;;15.96
43802;BMP280;29429;51.074;13.764;2023-08-30T03:26:43;99172.38;;;15.92
43802;BMP280;29429;51.074;13.764;2023-08-30T03:29:11;99171.84;;;15.90
43802;BMP280;29429;51.074;13.764;2023-08-30T03:31:38;99165.63;;;15.90
43802;BMP280;29429;51.074;13.764;2023-08-30T03:34:05;99169.97;;;15.91
43802;BMP280;29429;51.074;13.764;2023-08-30T03:36:32;99164.59;;;15.91
43802;BMP280;29429;51.074;13.764;2023-08-30T03:38:59;99169.16;;;15.90
43802;BMP280;29429;51.074;13.764;2023-08-30T03:41:26;99173.72;;;15.90
43802;BMP280;29429;51.074;13.764;2023-08-30T03:43:54;99182.53;;;15.85
43802;BMP280;29429;51.074;13.764;2023-08-30T03:46:21;99175.53;;;15.84
43802;BMP280;29429;51.074;13.764;2023-08-30T03:48:48;99174.72;;;15.83
43802;BMP280;29429;51.074;13.764;2023-08-30T03:51:15;99174.72;;;15.83
43802;BMP280;29429;51.074;13.764;2023-08-30T03:53:42;99161.47;;;15.77
43802;BMP280;29429;51.074;13.764;2023-08-30T03:56:09;99169.22;;;15.73
43802;BMP280;29429;51.074;13.764;2023-08-30T03:58:37;99172.19;;;15.72
43802;BMP280;29429;51.074;13.764;2023-08-30T04:01:04;99171.63;;;15.70
43802;BMP280;29429;51.074;13.764;2023-08-30T04:03:33;99170.81;;;15.69
43802;BMP280;29429;51.074;13.764;2023-08-30T04:06:01;99173.50;;;15.69
43802;BMP280;29429;51.074;13.764;2023-08-30T04:08:28;99172.19;;;15.72
43802;BMP280;29429;51.074;13.764;2023-08-30T04:10:55;99169.66;;;15.65
43802;BMP280;29429;51.074;13.764;2023-08-30T04:13:23;99172.34;;;15.65
43802;BMP280;29429;51.074;13.764;2023-08-30T04:15:51;99180.97;;;15.67
43802;BMP280;29429;51.074;13.764;2023-08-30T04:18:18;99168.34;;;15.68
43802;BMP280;29429;51.074;13.764;2023-08-30T04:20:46;99164.06;;;15.67
43802;BMP280;29429;51.074;13.764;2023-08-30T04:23:14;99166.31;;;15.75
43802;BMP280;29429;51.074;13.764;2023-08-30T04:25:44;99160.34;;;15.73
43802;BMP280;29429;51.074;13.764;2023-08-30T04:28:12;99167.63;;;15.72
43802;BMP280;29429;51.074;13.764;2023-08-30T04:30:39;99171.38;;;15.71
43802;BMP280;29429;51.074;13.764;2023-08-30T04:33:07;99166.50;;;15.68
43802;BMP280;29429;51.074;13.764;2023-08-30T04:35:34;99171.53;;;15.65
43802;BMP280;29429;51.074;13.764;2023-08-30T04:38:02;99159.19;;;15.64
43802;BMP280;29429;51.074;13.764;2023-08-30T04:40:30;99161.38;;;15.67
43802;BMP280;29429;51.074;13.764;2023-08-30T04:42:58;99158.69;;;15.67
43802;BMP280;29429;51.074;13.764;2023-08-30T04:45:26;99170.53;;;15.71
43802;BMP280;29429;51.074;13.764;2023-08-30T04:47:53;99170.88;;;15.74
43802;BMP280;29429;51.074;13.764;2023-08-30T04:50:21;99170.59;;;15.76
43802;BMP280;29429;51.074;13.764;2023-08-30T04:52:48;99175.47;;;15.79
43802;BMP280;29429;51.074;13.764;2023-08-30T04:55:17;99189.47;;;15.81
43802;BMP280;29429;51.074;13.764;2023-08-30T04:57:44;99182.22;;;15.81
43802;BMP280;29429;51.074;13.764;2023-08-30T05:00:15;99196.84;;;15.91
43802;BMP280;29429;51.074;13.764;2023-08-30T05:02:42;99193.66;;;15.94
43802;BMP280;29429;51.074;13.764;2023-08-30T05:05:11;99198.50;;;15.97
43802;BMP280;29429;51.074;13.764;2023-08-30T05:07:39;99195.28;;;15.95
43802;BMP280;29429;51.074;13.764;2023-08-30T05:10:07;99196.34;;;15.94
43802;BMP280;29429;51.074;13.764;2023-08-30T05:12:35;99206.59;;;15.97
43802;BMP280;29429;51.074;13.764;2023-08-30T05:15:03;99195.78;;;15.92
43802;BMP280;29429;51.074;13.764;2023-08-30T05:17:31;99193.13;;;15.97
43802;BMP280;29429;51.074;13.764;2023-08-30T05:19:58;99188.44;;;16.09
43802;BMP280;29429;51.074;13.764;2023-08-30T05:22:26;99193.91;;;16.19
43802;BMP280;29429;51.074;13.764;2023-08-30T05:24:53;99189.94;;;16.26
43802;BMP280;29429;51.074;13.764;2023-08-30T05:27:20;99192.38;;;16.28
43802;BMP280;29429;51.074;13.764;2023-08-30T05:29:47;99188.09;;;16.32
43802;BMP280;29429;51.074;13.764;2023-08-30T05:32:15;99194.63;;;16.36
43802;BMP280;29429;51.074;13.764;2023-08-30T05:35:00;99190.28;;;16.35
43802;BMP280;29429;51.074;13.764;2023-08-30T05:38:03;99194.63;;;16.36
43802;BMP280;29429;51.074;13.764;2023-08-30T05:41:05;99195.41;;;16.36
43802;BMP280;29429;51.074;13.764;2023-08-30T05:43:32;99198.88;;;16.32
43802;BMP280;29429;51.074;13.764;2023-08-30T05:45:59;99197.84;;;16.38
43802;BMP280;29429;51.074;13.764;2023-08-30T05:48:30;99195.72;;;16.40
43802;BMP280;29429;51.074;13.764;2023-08-30T05:50:57;99192.50;;;16.43
43802;BMP280;29429;51.074;13.764;2023-08-30T05:53:24;99201.97;;;16.45
43802;BMP280;29429;51.074;13.764;2023-08-30T05:55:51;99184.44;;;16.43
43802;BMP280;29429;51.074;13.764;2023-08-30T05:58:18;99192.56;;;16.48
43802;BMP280;29429;51.074;13.764;2023-08-30T06:00:47;99190.13;;;16.47
43802;BMP280;29429;51.074;13.764;2023-08-30T06:03:14;99186.13;;;16.49
43802;BMP280;29429;51.074;13.764;2023-08-30T06:05:41;99185.03;;;16.50
43802;BMP280;29429;51.074;13.764;2023-08-30T06:08:09;99191.56;;;16.54
43802;BMP280;29429;51.074;13.764;2023-08-30T06:10:37;99180.84;;;16.59
43802;BMP280;29429;51.074;13.764;2023-08-30T06:13:05;99181.19;;;16.68
43802;BMP280;29429;51.074;13.764;2023-08-30T06:15:32;99184.69;;;16.73
43802;BMP280;29429;51.074;13.764;2023-08-30T06:18:00;99181.50;;;16.76
43802;BMP280;29429;51.074;13.764;2023-08-30T06:20:27;99180.94;;;16.74
43802;BMP280;29429;51.074;13.764;2023-08-30T06:22:57;99182.59;;;16.80
43802;BMP280;29429;51.074;13.764;2023-08-30T06:25:29;99184.50;;;16.80
43802;BMP280;29429;51.074;13.764;2023-08-30T06:27:59;99180.47;;;16.82
43802;BMP280;29429;51.074;13.764;2023-08-30T06:30:29;99189.91;;;16.85
43802;BMP280;29429;51.074;13.764;2023-08-30T06:32:59;99183.19;;;16.87
43802;BMP280;29429;51.074;13.764;2023-08-30T06:35:27;99189.13;;;16.89
43802;BMP280;29429;51.074;13.764;2023-08-30T06:37:54;99187.53;;;16.93
43802;BMP280;29429;51.074;13.764;2023-08-30T06:40:23;99182.47;;;16.97
43802;BMP280;29429;51.074;13.764;2023-08-30T06:42:50;99189.16;;;16.94
43802;BMP280;29429;51.074;13.764;2023-08-30T06:45:17;99183.25;;;16.97
43802;BMP280;29429;51.074;13.764;2023-08-30T06:47:44;99190.84;;;17.05
43802;BMP280;29429;51.074;13.764;2023-08-30T06:50:11;99194.94;;;17.13
43802;BMP280;29429;51.074;13.764;2023-08-30T06:52:38;99190.97;;;17.26
43802;BMP280;29429;51.074;13.764;2023-08-30T06:55:05;99184.00;;;17.35
43802;BMP280;29429;51.074;13.764;2023-08-30T06:57:33;99184.03;;;17.45
43802;BMP280;29429;51.074;13.764;2023-08-30T07:00:00;99182.75;;;17.52
43802;BMP280;29429;51.074;13.764;2023-08-30T07:02:37;99194.66;;;17.61
43802;BMP280;29429;51.074;13.764;2023-08-30T07:05:04;99191.72;;;17.68
43802;BMP280;29429;51.074;13.764;2023-08-30T07:07:32;99183.63;;;17.63
43802;BMP280;29429;51.074;13.764;2023-08-30T07:09:59;99180.13;;;17.68
43802;BMP280;29429;51.074;13.764;2023-08-30T07:12:26;99185.00;;;17.76
43802;BMP280;29429;51.074;13.764;2023-08-30T07:14:53;99190.72;;;17.84
43802;BMP280;29429;51.074;13.764;2023-08-30T07:17:21;99191.78;;;17.88
43802;BMP280;29429;51.074;13.764;2023-08-30T07:19:49;99192.88;;;17.92
43802;BMP280;29429;51.074;13.764;2023-08-30T07:22:16;99189.09;;;17.88
43802;BMP280;29429;51.074;13.764;2023-08-30T07:24:45;99187.75;;;17.96
43802;BMP280;29429;51.074;13.764;2023-08-30T07:27:12;99183.19;;;18.01
43802;BMP280;29429;51.074;13.764;2023-08-30T07:29:39;99188.06;;;18.14
43802;BMP280;29429;51.074;13.764;2023-08-30T07:32:07;99192.63;;;18.19
43802;BMP280;29429;51.074;13.764;2023-08-30T07:34:35;99197.50;;;18.32
43802;BMP280;29429;51.074;13.764;2023-08-30T07:37:02;99195.63;;;18.43
43802;BMP280;29429;51.074;13.764;2023-08-30T07:39:30;99196.72;;;18.47
43802;BMP280;29429;51.074;13.764;2023-08-30T07:41:57;99193.00;;;18.48
43802;BMP280;29429;51.074;13.764;2023-08-30T07:44:24;99197.28;;;18.49
43802;BMP280;29429;51.074;13.764;2023-08-30T07:46:51;99195.41;;;18.59
43802;BMP280;29429;51.074;13.764;2023-08-30T07:49:18;99198.38;;;18.73
43802;BMP280;29429;51.074;13.764;2023-08-30T07:51:45;99193.50;;;18.85
43802;BMP280;29429;51.074;13.764;2023-08-30T07:54:13;99193.22;;;18.97
43802;BMP280;29429;51.074;13.764;2023-08-30T07:56:41;99192.38;;;19.01
43802;BMP280;29429;51.074;13.764;2023-08-30T07:59:08;99196.72;;;19.02
43802;BMP280;29429;51.074;13.764;2023-08-30T08:01:35;99194.84;;;19.03
43802;BMP280;29429;51.074;13.764;2023-08-30T08:04:02;99195.09;;;18.96
43802;BMP280;29429;51.074;13.764;2023-08-30T08:06:34;99197.81;;;18.96
43802;BMP280;29429;51.074;13.764;2023-08-30T08:09:04;99200.78;;;18.95
43802;BMP280;29429;51.074;13.764;2023-08-30T08:11:32;99205.41;;;18.84
43802;BMP280;29429;51.074;13.764;2023-08-30T08:13:59;99203.53;;;18.79
43802;BMP280;29429;51.074;13.764;2023-08-30T08:16:27;99198.91;;;18.75
43802;BMP280;29429;51.074;13.764;2023-08-30T08:18:55;99195.94;;;18.81
43802;BMP280;29429;51.074;13.764;2023-08-30T08:21:28;99193.50;;;18.85
43802;BMP280;29429;51.074;13.764;2023-08-30T08:24:16;99184.56;;;18.95
43802;BMP280;29429;51.074;13.764;2023-08-30T08:26:43;99184.81;;;19.08
43802;BMP280;29429;51.074;13.764;2023-08-30T08:29:10;99172.63;;;19.16
43802;BMP280;29429;51.074;13.764;2023-08-30T08:31:39;99175.06;;;19.12
43802;BMP280;29429;51.074;13.764;2023-08-30T08:34:11;99175.59;;;19.14
43802;BMP280;29429;51.074;13.764;2023-08-30T08:36:40;99162.63;;;19.16
43802;BMP280;29429;51.074;13.764;2023-08-30T08:39:08;99162.06;;;19.24
43802;BMP280;29429;51.074;13.764;2023-08-30T08:41:42;99158.22;;;19.35
43802;BMP280;29429;51.074;13.764;2023-08-30T08:44:11;99150.69;;;19.42
43802;BMP280;29429;51.074;13.764;2023-08-30T08:46:40;99143.63;;;19.41
43802;BMP280;29429;51.074;13.764;2023-08-30T08:49:17;99147.41;;;19.51
43802;BMP280;29429;51.074;13.764;2023-08-30T08:51:45;99144.91;;;19.64
43802;BMP280;29429;51.074;13.764;2023-08-30T08:54:13;99144.00;;;19.79
43802;BMP280;29429;51.074;13.764;2023-08-30T08:56:40;99142.91;;;19.80
43802;BMP280;29429;51.074;13.764;2023-08-30T08:59:07;99145.00;;;19.93
43802;BMP280;29429;51.074;13.764;2023-08-30T09:01:39;99148.13;;;20.10
43802;BMP280;29429;51.074;13.764;2023-08-30T09:04:10;99152.41;;;20.16
43802;BMP280;29429;51.074;13.764;2023-08-30T09:06:38;99139.94;;;20.15
43802;BMP280;29429;51.074;13.764;2023-08-30T09:09:08;99151.00;;;20.29
43802;BMP280;29429;51.074;13.764;2023-08-30T09:11:35;99155.25;;;20.40
43802;BMP280;29429;51.074;13.764;2023-08-30T09:14:18;99156.81;;;20.46
43802;BMP280;29429;51.074;13.764;2023-08-30T09:16:56;99151.88;;;20.53
43802;BMP280;29429;51.074;13.764;2023-08-30T09:19:24;99149.94;;;20.58
43802;BMP280;29429;51.074;13.764;2023-08-30T09:21:58;99154.22;;;20.64
43802;BMP280;29429;51.074;13.764;2023-08-30T09:24:37;99149.13;;;20.58
43802;BMP280;29429;51.074;13.764;2023-08-30T09:27:04;99133.16;;;20.85
43802;BMP280;29429;51.074;13.764;2023-08-30T09:29:31;99136.72;;;21.09
43802;BMP280;29429;51.074;13.764;2023-08-30T09:32:00;99121.88;;;21.26
43802;BMP280;29429;51.074;13.764;2023-08-30T09:34:27;99127.41;;;21.39
43802;BMP280;29429;51.074;13.764;2023-08-30T09:36:55;99137.84;;;21.51
43802;BMP280;29429;51.074;13.764;2023-08-30T09:39:22;99139.97;;;21.54
43802;BMP280;29429;51.074;13.764;2023-08-30T09:41:50;99138.88;;;21.55
43802;BMP280;29429;51.074;13.764;2023-08-30T09:44:21;99136.75;;;21.52
43802;BMP280;29429;51.074;13.764;2023-08-30T09:46:54;99139.16;;;21.53
43802;BMP280;29429;51.074;13.764;2023-08-30T09:49:25;99146.66;;;21.61
43802;BMP280;29429;51.074;13.764;2023-08-30T09:51:54;99138.53;;;21.80
43802;BMP280;29429;51.074;13.764;2023-08-30T09:54:26;99144.66;;;21.91
43802;BMP280;29429;51.074;13.764;2023-08-30T09:57:00;99133.84;;;21.85
43802;BMP280;29429;51.074;13.764;2023-08-30T09:59:28;99142.34;;;21.79
43802;BMP280;29429;51.074;13.764;2023-08-30T10:01:57;99138.28;;;21.76
43802;BMP280;29429;51.074;13.764;2023-08-30T10:04:25;99129.50;;;21.84
43802;BMP280;29429;51.074;13.764;2023-08-30T10:06:55;99135.34;;;21.97
43802;BMP280;29429;51.074;13.764;2023-08-30T10:09:24;99127.91;;;22.02
43802;BMP280;29429;51.074;13.764;2023-08-30T10:11:52;99127.75;;;22.12
43802;BMP280;29429;51.074;13.764;2023-08-30T10:14:20;99124.88;;;22.22
43802;BMP280;29429;51.074;13.764;2023-08-30T10:16:48;99125.28;;;22.29
43802;BMP280;29429;51.074;13.764;2023-08-30T10:19:23;99126.13;;;22.30
43802;BMP280;29429;51.074;13.764;2023-08-30T10:22:05;99121.94;;;22.19
43802;BMP280;29429;51.074;13.764;2023-08-30T10:25:01;99119.97;;;22.06
43802;BMP280;29429;51.074;13.764;2023-08-30T10:27:43;99120.88;;;22.01
43802;BMP280;29429;51.074;13.764;2023-08-30T10:30:13;99125.78;;;21.99
43802;BMP280;29429;51.074;13.764;2023-08-30T10:32:42;99121.25;;;21.95
43802;BMP280;29429;51.074;13.764;2023-08-30T10:35:12;99122.25;;;21.99
43802;BMP280;29429;51.074;13.764;2023-08-30T10:37:41;99119.78;;;22.02
43802;BMP280;29429;51.074;13.764;2023-08-30T10:40:09;99124.47;;;22.15
43802;BMP280;29429;51.074;13.764;2023-08-30T10:42:36;99129.41;;;22.27
43802;BMP280;29429;51.074;13.764;2023-08-30T10:45:07;99128.75;;;22.35
43802;BMP280;29429;51.074;13.764;2023-08-30T10:47:40;99129.38;;;22.64
43802;BMP280;29429;51.074;13.764;2023-08-30T10:50:11;99136.47;;;22.79
43802;BMP280;29429;51.074;13.764;2023-08-30T10:52:39;99133.13;;;22.95
43802;BMP280;29429;51.074;13.764;2023-08-30T10:55:11;99139.41;;;23.10
43802;BMP280;29429;51.074;13.764;2023-08-30T10:57:42;99137.06;;;23.17
43802;BMP280;29429;51.074;13.764;2023-08-30T11:00:22;99131.13;;;23.15
43802;BMP280;29429;51.074;13.764;2023-08-30T11:02:50;99140.13;;;23.29
43802;BMP280;29429;51.074;13.764;2023-08-30T11:05:24;99130.16;;;23.38
43802;BMP280;29429;51.074;13.764;2023-08-30T11:07:52;99123.22;;;23.45
43802;BMP280;29429;51.074;13.764;2023-08-30T11:10:20;99125.13;;;23.45
43802;BMP280;29429;51.074;13.764;2023-08-30T11:12:49;99123.69;;;23.47
43802;BMP280;29429;51.074;13.764;2023-08-30T11:15:17;99118.84;;;23.58
43802;BMP280;29429;51.074;13.764;2023-08-30T11:17:45;99121.25;;;23.46
43802;BMP280;29429;51.074;13.764;2023-08-30T11:20:15;99120.50;;;23.45
43802;BMP280;29429;51.074;13.764;2023-08-30T11:22:48;99123.28;;;23.27
43802;BMP280;29429;51.074;13.764;2023-08-30T11:25:17;99125.31;;;23.35
43802;BMP280;29429;51.074;13.764;2023-08-30T11:27:44;99113.59;;;23.34
43802;BMP280;29429;51.074;13.764;2023-08-30T11:30:13;99120.06;;;23.38
43802;BMP280;29429;51.074;13.764;2023-08-30T11:32:42;99112.09;;;23.15
43802;BMP280;29429;51.074;13.764;2023-08-30T11:35:13;99117.63;;;23.10
43802;BMP280;29429;51.074;13.764;2023-08-30T11:37:41;99107.06;;;23.08
43802;BMP280;29429;51.074;13.764;2023-08-30T11:40:11;99113.09;;;23.05
43802;BMP280;29429;51.074;13.764;2023-08-30T11:42:39;99108.38;;;22.97
43802;BMP280;29429;51.074;13.764;2023-08-30T11:45:07;99098.78;;;22.86
43802;BMP280;29429;51.074;13.764;2023-08-30T11:47:35;99102.09;;;22.83
43802;BMP280;29429;51.074;13.764;2023-08-30T11:50:02;99097.69;;;23.00
43802;BMP280;29429;51.074;13.764;2023-08-30T11:52:30;99095.47;;;23.02
43802;BMP280;29429;51.074;13.764;2023-08-30T11:54:58;99092.44;;;22.90
43802;BMP280;29429;51.074;13.764;2023-08-30T11:57:25;99097.88;;;22.90
43802;BMP280;29429;51.074;13.764;2023-08-30T11:59:52;99091.94;;;22.88
43802;BMP280;29429;51.074;13.764;2023-08-30T12:02:20;99088.91;;;22.76
43802;BMP280;29429;51.074;13.764;2023-08-30T12:04:50;99089.41;;;22.78
43802;BMP280;29429;51.074;13.764;2023-08-30T12:07:25;99080.44;;;22.78
43802;BMP280;29429;51.074;13.764;2023-08-30T12:10:07;99083.97;;;22.78
43802;BMP280;29429;51.074;13.764;2023-08-30T12:12:35;99077.44;;;22.79
43802;BMP280;29429;51.074;13.764;2023-08-30T12:15:10;99082.97;;;22.88
43802;BMP280;29429;51.074;13.764;2023-08-30T12:17:38;99082.19;;;22.87
43802;BMP280;29429;51.074;13.764;2023-08-30T12:20:06;99076.13;;;22.90
43802;BMP280;29429;51.074;13.764;2023-08-30T12:22:40;99064.94;;;22.92
43802;BMP280;29429;51.074;13.764;2023-08-30T12:25:20;99068.97;;;22.94
43802;BMP280;29429;51.074;13.764;2023-08-30T12:27:48;99060.50;;;22.69
43802;BMP280;29429;51.074;13.764;2023-08-30T12:30:16;99057.56;;;22.65
43802;BMP280;29429;51.074;13.764;2023-08-30T12:32:47;99063.00;;;22.65
43802;BMP280;29429;51.074;13.764;2023-08-30T12:35:15;99062.59;;;22.58
43802;BMP280;29429;51.074;13.764;2023-08-30T12:37:43;99057.00;;;22.36
43802;BMP280;29429;51.074;13.764;2023-08-30T12:40:11;99062.69;;;22.21
43802;BMP280;29429;51.074;13.764;2023-08-30T12:42:39;99058.94;;;22.17
43802;BMP280;29429;51.074;13.764;2023-08-30T12:45:07;99060.66;;;22.13
43802;BMP280;29429;51.074;13.764;2023-08-30T12:47:34;99062.78;;;22.16
43802;BMP280;29429;51.074;13.764;2023-08-30T12:50:03;99052.41;;;22.18
43802;BMP280;29429;51.074;13.764;2023-08-30T12:52:30;99057.69;;;22.28
43802;BMP280;29429;51.074;13.764;2023-08-30T12:54:57;99055.91;;;22.37
43802;BMP280;29429;51.074;13.764;2023-08-30T12:57:27;99057.41;;;22.43
43802;BMP280;29429;51.074;13.764;2023-08-30T12:59:56;99056.03;;;22.59
43802;BMP280;29429;51.074;13.764;2023-08-30T13:02:26;99060.00;;;22.80
43802;BMP280;29429;51.074;13.764;2023-08-30T13:04:53;99048.41;;;22.88
43802;BMP280;29429;51.074;13.764;2023-08-30T13:07:20;99051.94;;;23.02
43802;BMP280;29429;51.074;13.764;2023-08-30T13:09:47;99055.66;;;23.07
43802;BMP280;29429;51.074;13.764;2023-08-30T13:12:14;99054.06;;;23.06
43802;BMP280;29429;51.074;13.764;2023-08-30T13:14:41;99043.38;;;22.95
43802;BMP280;29429;51.074;13.764;2023-08-30T13:17:08;99044.50;;;22.81
43802;BMP280;29429;51.074;13.764;2023-08-30T13:19:35;99042.09;;;22.79
43802;BMP280;29429;51.074;13.764;2023-08-30T13:22:02;99039.25;;;22.84
43802;BMP280;29429;51.074;13.764;2023-08-30T13:24:29;99035.84;;;22.92
43802;BMP280;29429;51.074;13.764;2023-08-30T13:26:59;99035.19;;;22.95
43802;BMP280;29429;51.074;13.764;2023-08-30T13:29:26;99035.03;;;23.06
43802;BMP280;29429;51.074;13.764;2023-08-30T13:31:53;99033.78;;;23.12
43802;BMP280;29429;51.074;13.764;2023-08-30T13:34:20;99031.69;;;23.09
43802;BMP280;29429;51.074;13.764;2023-08-30T13:36:47;99031.22;;;22.79
43802;BMP280;29429;51.074;13.764;2023-08-30T13:39:14;99027.34;;;22.67
43802;BMP280;29429;51.074;13.764;2023-08-30T13:41:41;99031.19;;;22.66
43802;BMP280;29429;51.074;13.764;2023-08-30T13:44:30;99028.13;;;22.54
43802;BMP280;29429;51.074;13.764;2023-08-30T13:47:07;99024.06;;;22.37
43802;BMP280;29429;51.074;13.764;2023-08-30T13:49:35;99028.88;;;22.27
43802;BMP280;29429;51.074;13.764;2023-08-30T13:52:04;99025.84;;;22.15
43802;BMP280;29429;51.074;13.764;2023-08-30T13:54:32;99030.88;;;22.08
43802;BMP280;29429;51.074;13.764;2023-08-30T13:56:59;99022.59;;;21.99
43802;BMP280;29429;51.074;13.764;2023-08-30T13:59:26;99025.31;;;21.99
43802;BMP280;29429;51.074;13.764;2023-08-30T14:01:55;99013.78;;;21.89
43802;BMP280;29429;51.074;13.764;2023-08-30T14:04:24;99017.66;;;21.82
43802;BMP280;29429;51.074;13.764;2023-08-30T14:06:52;99019.28;;;21.83
43802;BMP280;29429;51.074;13.764;2023-08-30T14:09:20;99018.06;;;21.76
43802;BMP280;29429;51.074;13.764;2023-08-30T14:11:49;99014.31;;;21.91
43802;BMP280;29429;51.074;13.764;2023-08-30T14:14:16;99011.41;;;22.01